sensor_id;sensor_type;location;lat;lon;timestamp;P1;durP1;ratioP1;P2;durP2;ratioP2
52668;SDS011;76842;52.786;6.892;2024-03-08T00:01:35;29.02;;;22.85;;
52668;SDS011;76842;52.786;6.892;2024-03-08T00:04:56;28.30;;;23.35;;
52668;SDS011;76842;52.786;6.892;2024-03-08T00:08:17;29.65;;;22.85;;
52668;SDS011;76842;52.786;6.892;2024-03-08T00:11:37;33.30;;;24.02;;
52668;SDS011;76842;52.786;6.892;2024-03-08T00:14:58;31.95;;;25.02;;
52668;SDS011;76842;52.786;6.892;2024-03-08T00:18:19;31.48;;;23.90;;
52668;SDS011;76842;52.786;6.892;2024-03-08T00:21:40;28.00;;;24.02;;
52668;SDS011;76842;52.786;6.892;2024-03-08T00:25:02;30.73;;;24.85;;
52668;SDS011;76842;52.786;6.892;2024-03-08T00:28:23;33.08;;;26.85;;
52668;SDS011;76842;52.786;6.892;2024-03-08T00:31:45;35.15;;;25.73;;
52668;SDS011;76842;52.786;6.892;2024-03-08T00:35:05;31.45;;;25.42;;
52668;SDS011;76842;52.786;6.892;2024-03-08T00:38:29;30.00;;;24.50;;
52668;SDS011;76842;52.786;6.892;2024-03-08T00:41:50;32.33;;;24.25;;
52668;SDS011;76842;52.786;6.892;2024-03-08T00:45:10;33.20;;;25.40;;
52668;SDS011;76842;52.786;6.892;2024-03-08T00:48:31;36.38;;;28.10;;
52668;SDS011;76842;52.786;6.892;2024-03-08T00:51:52;31.88;;;24.50;;
52668;SDS011;76842;52.786;6.892;2024-03-08T00:55:13;31.17;;;23.77;;
52668;SDS011;76842;52.786;6.892;2024-03-08T00:58:34;34.53;;;25.58;;
52668;SDS011;76842;52.786;6.892;2024-03-08T01:01:54;28.60;;;23.33;;
52668;SDS011;76842;52.786;6.892;2024-03-08T01:05:15;35.00;;;25.08;;
52668;SDS011;76842;52.786;6.892;2024-03-08T01:08:35;31.35;;;24.83;;
52668;SDS011;76842;52.786;6.892;2024-03-08T01:11:58;34.05;;;24.95;;
52668;SDS011;76842;52.786;6.892;2024-03-08T01:15:18;33.20;;;25.05;;
52668;SDS011;76842;52.786;6.892;2024-03-08T01:18:39;33.55;;;26.48;;
52668;SDS011;76842;52.786;6.892;2024-03-08T01:22:00;31.30;;;25.00;;
52668;SDS011;76842;52.786;6.892;2024-03-08T01:25:21;33.42;;;26.45;;
52668;SDS011;76842;52.786;6.892;2024-03-08T01:28:42;31.63;;;26.00;;
52668;SDS011;76842;52.786;6.892;2024-03-08T01:32:03;34.03;;;24.65;;
52668;SDS011;76842;52.786;6.892;2024-03-08T01:35:24;35.15;;;25.60;;
52668;SDS011;76842;52.786;6.892;2024-03-08T01:38:46;35.35;;;24.25;;
52668;SDS011;76842;52.786;6.892;2024-03-08T01:42:07;34.13;;;25.02;;
52668;SDS011;76842;52.786;6.892;2024-03-08T01:45:27;32.85;;;24.60;;
52668;SDS011;76842;52.786;6.892;2024-03-08T01:48:49;33.72;;;26.88;;
52668;SDS011;76842;52.786;6.892;2024-03-08T01:52:10;33.60;;;25.02;;
52668;SDS011;76842;52.786;6.892;2024-03-08T01:55:31;33.20;;;25.95;;
52668;SDS011;76842;52.786;6.892;2024-03-08T01:58:52;31.48;;;25.05;;
52668;SDS011;76842;52.786;6.892;2024-03-08T02:02:14;32.53;;;24.10;;
52668;SDS011;76842;52.786;6.892;2024-03-08T02:05:38;31.48;;;25.23;;
52668;SDS011;76842;52.786;6.892;2024-03-08T02:09:00;34.65;;;28.20;;
52668;SDS011;76842;52.786;6.892;2024-03-08T02:12:25;32.13;;;27.02;;
52668;SDS011;76842;52.786;6.892;2024-03-08T02:16:04;32.70;;;26.25;;
52668;SDS011;76842;52.786;6.892;2024-03-08T02:19:27;33.78;;;25.10;;
52668;SDS011;76842;52.786;6.892;2024-03-08T02:22:48;31.73;;;26.08;;
52668;SDS011;76842;52.786;6.892;2024-03-08T02:26:10;33.03;;;27.77;;
52668;SDS011;76842;52.786;6.892;2024-03-08T02:29:31;30.17;;;25.20;;
52668;SDS011;76842;52.786;6.892;2024-03-08T02:32:54;32.03;;;22.30;;
52668;SDS011;76842;52.786;6.892;2024-03-08T02:36:14;34.90;;;25.88;;
52668;SDS011;76842;52.786;6.892;2024-03-08T02:39:36;32.42;;;24.67;;
52668;SDS011;76842;52.786;6.892;2024-03-08T02:42:56;32.83;;;24.45;;
52668;SDS011;76842;52.786;6.892;2024-03-08T02:46:18;31.08;;;24.52;;
52668;SDS011;76842;52.786;6.892;2024-03-08T02:49:38;28.98;;;24.55;;
52668;SDS011;76842;52.786;6.892;2024-03-08T02:52:59;33.03;;;23.63;;
52668;SDS011;76842;52.786;6.892;2024-03-08T02:56:20;32.47;;;26.42;;
52668;SDS011;76842;52.786;6.892;2024-03-08T02:59:42;34.55;;;25.10;;
52668;SDS011;76842;52.786;6.892;2024-03-08T03:03:03;35.88;;;24.65;;
52668;SDS011;76842;52.786;6.892;2024-03-08T03:06:24;30.92;;;25.02;;
52668;SDS011;76842;52.786;6.892;2024-03-08T03:09:44;33.92;;;26.33;;
52668;SDS011;76842;52.786;6.892;2024-03-08T03:13:05;28.92;;;24.48;;
52668;SDS011;76842;52.786;6.892;2024-03-08T03:16:26;37.30;;;26.95;;
52668;SDS011;76842;52.786;6.892;2024-03-08T03:19:46;29.42;;;25.30;;
52668;SDS011;76842;52.786;6.892;2024-03-08T03:23:07;33.15;;;26.02;;
52668;SDS011;76842;52.786;6.892;2024-03-08T03:26:29;34.60;;;24.75;;
52668;SDS011;76842;52.786;6.892;2024-03-08T03:29:52;34.15;;;26.10;;
52668;SDS011;76842;52.786;6.892;2024-03-08T03:33:13;34.15;;;27.17;;
52668;SDS011;76842;52.786;6.892;2024-03-08T03:36:35;33.33;;;23.80;;
52668;SDS011;76842;52.786;6.892;2024-03-08T03:39:58;32.45;;;24.10;;
52668;SDS011;76842;52.786;6.892;2024-03-08T03:43:18;36.67;;;25.92;;
52668;SDS011;76842;52.786;6.892;2024-03-08T03:46:41;28.13;;;24.13;;
52668;SDS011;76842;52.786;6.892;2024-03-08T03:50:05;33.22;;;25.00;;
52668;SDS011;76842;52.786;6.892;2024-03-08T03:53:26;33.23;;;26.60;;
52668;SDS011;76842;52.786;6.892;2024-03-08T03:56:47;31.65;;;24.70;;
52668;SDS011;76842;52.786;6.892;2024-03-08T04:00:12;34.30;;;25.70;;
52668;SDS011;76842;52.786;6.892;2024-03-08T04:03:33;33.22;;;28.08;;
52668;SDS011;76842;52.786;6.892;2024-03-08T04:06:54;32.60;;;25.65;;
52668;SDS011;76842;52.786;6.892;2024-03-08T04:10:14;30.85;;;24.92;;
52668;SDS011;76842;52.786;6.892;2024-03-08T04:13:35;35.17;;;25.42;;
52668;SDS011;76842;52.786;6.892;2024-03-08T04:16:56;31.77;;;25.10;;
52668;SDS011;76842;52.786;6.892;2024-03-08T04:20:17;32.10;;;24.92;;
52668;SDS011;76842;52.786;6.892;2024-03-08T04:23:37;29.38;;;24.50;;
52668;SDS011;76842;52.786;6.892;2024-03-08T04:26:58;32.58;;;23.80;;
52668;SDS011;76842;52.786;6.892;2024-03-08T04:30:19;34.28;;;24.38;;
52668;SDS011;76842;52.786;6.892;2024-03-08T04:33:41;31.27;;;25.33;;
52668;SDS011;76842;52.786;6.892;2024-03-08T04:37:02;30.20;;;22.90;;
52668;SDS011;76842;52.786;6.892;2024-03-08T04:40:24;30.98;;;23.90;;
52668;SDS011;76842;52.786;6.892;2024-03-08T04:43:45;30.77;;;23.70;;
52668;SDS011;76842;52.786;6.892;2024-03-08T04:47:06;34.70;;;25.67;;
52668;SDS011;76842;52.786;6.892;2024-03-08T04:50:26;31.08;;;23.63;;
52668;SDS011;76842;52.786;6.892;2024-03-08T04:53:49;31.98;;;24.50;;
52668;SDS011;76842;52.786;6.892;2024-03-08T04:57:09;30.17;;;23.60;;
52668;SDS011;76842;52.786;6.892;2024-03-08T05:00:31;34.25;;;23.73;;
52668;SDS011;76842;52.786;6.892;2024-03-08T05:03:52;29.80;;;23.20;;
52668;SDS011;76842;52.786;6.892;2024-03-08T05:07:15;32.85;;;22.10;;
52668;SDS011;76842;52.786;6.892;2024-03-08T05:10:35;33.22;;;23.83;;
52668;SDS011;76842;52.786;6.892;2024-03-08T05:13:56;34.95;;;23.00;;
52668;SDS011;76842;52.786;6.892;2024-03-08T05:17:19;28.45;;;20.77;;
52668;SDS011;76842;52.786;6.892;2024-03-08T05:20:39;29.98;;;21.63;;
52668;SDS011;76842;52.786;6.892;2024-03-08T05:24:01;33.80;;;23.45;;
52668;SDS011;76842;52.786;6.892;2024-03-08T05:27:21;32.63;;;23.88;;
52668;SDS011;76842;52.786;6.892;2024-03-08T05:30:42;32.22;;;21.85;;
52668;SDS011;76842;52.786;6.892;2024-03-08T05:34:03;29.63;;;22.40;;
52668;SDS011;76842;52.786;6.892;2024-03-08T05:37:23;30.17;;;22.95;;
52668;SDS011;76842;52.786;6.892;2024-03-08T05:40:44;31.88;;;22.70;;
52668;SDS011;76842;52.786;6.892;2024-03-08T05:44:04;33.85;;;23.38;;
52668;SDS011;76842;52.786;6.892;2024-03-08T05:47:25;31.13;;;23.77;;
52668;SDS011;76842;52.786;6.892;2024-03-08T05:50:46;36.47;;;25.80;;
52668;SDS011;76842;52.786;6.892;2024-03-08T05:54:07;37.63;;;25.85;;
52668;SDS011;76842;52.786;6.892;2024-03-08T05:57:31;34.25;;;26.13;;
52668;SDS011;76842;52.786;6.892;2024-03-08T06:00:51;32.65;;;25.77;;
52668;SDS011;76842;52.786;6.892;2024-03-08T06:04:12;36.78;;;26.67;;
52668;SDS011;76842;52.786;6.892;2024-03-08T06:07:32;37.17;;;25.38;;
52668;SDS011;76842;52.786;6.892;2024-03-08T06:10:53;43.40;;;27.02;;
52668;SDS011;76842;52.786;6.892;2024-03-08T06:14:14;47.78;;;27.02;;
52668;SDS011;76842;52.786;6.892;2024-03-08T06:17:38;31.52;;;25.13;;
52668;SDS011;76842;52.786;6.892;2024-03-08T06:20:59;38.22;;;27.73;;
52668;SDS011;76842;52.786;6.892;2024-03-08T06:24:20;34.03;;;26.52;;
52668;SDS011;76842;52.786;6.892;2024-03-08T06:27:41;36.38;;;26.98;;
52668;SDS011;76842;52.786;6.892;2024-03-08T06:31:06;34.78;;;26.30;;
52668;SDS011;76842;52.786;6.892;2024-03-08T06:34:28;36.05;;;26.08;;
52668;SDS011;76842;52.786;6.892;2024-03-08T06:37:48;33.75;;;25.42;;
52668;SDS011;76842;52.786;6.892;2024-03-08T06:41:09;31.60;;;25.58;;
52668;SDS011;76842;52.786;6.892;2024-03-08T06:44:35;37.97;;;26.55;;
52668;SDS011;76842;52.786;6.892;2024-03-08T06:47:55;32.42;;;24.98;;
52668;SDS011;76842;52.786;6.892;2024-03-08T06:51:16;33.83;;;25.27;;
52668;SDS011;76842;52.786;6.892;2024-03-08T06:54:37;33.70;;;24.50;;
52668;SDS011;76842;52.786;6.892;2024-03-08T06:57:58;33.42;;;24.40;;
52668;SDS011;76842;52.786;6.892;2024-03-08T07:01:19;29.52;;;21.63;;
52668;SDS011;76842;52.786;6.892;2024-03-08T07:04:40;30.05;;;23.08;;
52668;SDS011;76842;52.786;6.892;2024-03-08T07:08:00;32.70;;;23.83;;
52668;SDS011;76842;52.786;6.892;2024-03-08T07:11:21;33.70;;;23.13;;
52668;SDS011;76842;52.786;6.892;2024-03-08T07:14:41;31.77;;;22.20;;
52668;SDS011;76842;52.786;6.892;2024-03-08T07:18:05;32.13;;;22.83;;
52668;SDS011;76842;52.786;6.892;2024-03-08T07:21:26;32.38;;;20.08;;
52668;SDS011;76842;52.786;6.892;2024-03-08T07:24:46;27.90;;;17.80;;
52668;SDS011;76842;52.786;6.892;2024-03-08T07:28:07;30.63;;;19.92;;
52668;SDS011;76842;52.786;6.892;2024-03-08T07:31:27;24.08;;;18.65;;
52668;SDS011;76842;52.786;6.892;2024-03-08T07:34:57;25.83;;;18.77;;
52668;SDS011;76842;52.786;6.892;2024-03-08T07:38:18;25.40;;;18.98;;
52668;SDS011;76842;52.786;6.892;2024-03-08T07:41:41;29.08;;;18.85;;
52668;SDS011;76842;52.786;6.892;2024-03-08T07:45:01;27.05;;;18.35;;
52668;SDS011;76842;52.786;6.892;2024-03-08T07:48:22;27.52;;;18.23;;
52668;SDS011;76842;52.786;6.892;2024-03-08T07:51:43;27.15;;;19.65;;
52668;SDS011;76842;52.786;6.892;2024-03-08T07:55:03;28.00;;;19.60;;
52668;SDS011;76842;52.786;6.892;2024-03-08T07:58:25;29.15;;;19.13;;
52668;SDS011;76842;52.786;6.892;2024-03-08T08:01:46;26.55;;;20.48;;
52668;SDS011;76842;52.786;6.892;2024-03-08T08:05:07;27.60;;;19.60;;
52668;SDS011;76842;52.786;6.892;2024-03-08T08:08:30;26.53;;;19.73;;
52668;SDS011;76842;52.786;6.892;2024-03-08T08:11:52;31.88;;;20.00;;
52668;SDS011;76842;52.786;6.892;2024-03-08T08:15:12;27.48;;;20.90;;
52668;SDS011;76842;52.786;6.892;2024-03-08T08:18:35;28.85;;;19.88;;
52668;SDS011;76842;52.786;6.892;2024-03-08T08:21:56;26.85;;;20.38;;
52668;SDS011;76842;52.786;6.892;2024-03-08T08:25:17;29.65;;;19.88;;
52668;SDS011;76842;52.786;6.892;2024-03-08T08:28:40;32.53;;;21.40;;
52668;SDS011;76842;52.786;6.892;2024-03-08T08:32:01;29.88;;;20.25;;
52668;SDS011;76842;52.786;6.892;2024-03-08T08:35:21;30.48;;;21.15;;
52668;SDS011;76842;52.786;6.892;2024-03-08T08:38:44;28.77;;;21.63;;
52668;SDS011;76842;52.786;6.892;2024-03-08T08:42:05;31.08;;;20.77;;
52668;SDS011;76842;52.786;6.892;2024-03-08T08:45:29;32.10;;;21.90;;
52668;SDS011;76842;52.786;6.892;2024-03-08T08:48:53;31.48;;;20.98;;
52668;SDS011;76842;52.786;6.892;2024-03-08T08:52:13;29.30;;;21.40;;
52668;SDS011;76842;52.786;6.892;2024-03-08T08:55:35;26.90;;;21.23;;
52668;SDS011;76842;52.786;6.892;2024-03-08T08:58:56;29.63;;;20.90;;
52668;SDS011;76842;52.786;6.892;2024-03-08T09:02:17;31.65;;;22.05;;
52668;SDS011;76842;52.786;6.892;2024-03-08T09:05:40;28.77;;;21.00;;
52668;SDS011;76842;52.786;6.892;2024-03-08T09:09:02;28.50;;;20.52;;
52668;SDS011;76842;52.786;6.892;2024-03-08T09:12:25;35.30;;;20.13;;
52668;SDS011;76842;52.786;6.892;2024-03-08T09:15:46;26.10;;;20.52;;
52668;SDS011;76842;52.786;6.892;2024-03-08T09:19:06;26.27;;;21.70;;
52668;SDS011;76842;52.786;6.892;2024-03-08T09:22:27;32.97;;;20.63;;
52668;SDS011;76842;52.786;6.892;2024-03-08T09:25:48;28.67;;;20.50;;
52668;SDS011;76842;52.786;6.892;2024-03-08T09:29:08;33.17;;;20.55;;
52668;SDS011;76842;52.786;6.892;2024-03-08T09:32:30;33.60;;;22.88;;
52668;SDS011;76842;52.786;6.892;2024-03-08T09:35:51;29.88;;;22.27;;
52668;SDS011;76842;52.786;6.892;2024-03-08T09:39:13;31.23;;;22.15;;
52668;SDS011;76842;52.786;6.892;2024-03-08T09:42:37;34.88;;;23.63;;
52668;SDS011;76842;52.786;6.892;2024-03-08T09:45:58;30.00;;;20.85;;
52668;SDS011;76842;52.786;6.892;2024-03-08T09:49:18;29.80;;;21.55;;
52668;SDS011;76842;52.786;6.892;2024-03-08T09:52:40;25.77;;;19.67;;
52668;SDS011;76842;52.786;6.892;2024-03-08T09:56:01;30.88;;;19.65;;
52668;SDS011;76842;52.786;6.892;2024-03-08T09:59:23;28.35;;;20.42;;
52668;SDS011;76842;52.786;6.892;2024-03-08T10:06:08;27.85;;;19.45;;
52668;SDS011;76842;52.786;6.892;2024-03-08T10:09:30;30.40;;;22.15;;
52668;SDS011;76842;52.786;6.892;2024-03-08T10:12:50;26.30;;;20.52;;
52668;SDS011;76842;52.786;6.892;2024-03-08T10:16:12;30.45;;;21.40;;
52668;SDS011;76842;52.786;6.892;2024-03-08T10:19:33;30.52;;;21.27;;
52668;SDS011;76842;52.786;6.892;2024-03-08T10:22:54;25.52;;;20.27;;
52668;SDS011;76842;52.786;6.892;2024-03-08T10:26:15;29.88;;;21.00;;
52668;SDS011;76842;52.786;6.892;2024-03-08T10:29:36;29.60;;;21.58;;
52668;SDS011;76842;52.786;6.892;2024-03-08T10:32:58;25.38;;;19.42;;
52668;SDS011;76842;52.786;6.892;2024-03-08T10:36:19;30.23;;;21.00;;
52668;SDS011;76842;52.786;6.892;2024-03-08T10:39:40;27.75;;;21.77;;
52668;SDS011;76842;52.786;6.892;2024-03-08T10:43:11;26.67;;;21.58;;
52668;SDS011;76842;52.786;6.892;2024-03-08T10:50:26;28.23;;;20.73;;
52668;SDS011;76842;52.786;6.892;2024-03-08T10:53:47;28.58;;;21.27;;
52668;SDS011;76842;52.786;6.892;2024-03-08T10:57:09;27.02;;;20.27;;
52668;SDS011;76842;52.786;6.892;2024-03-08T11:00:32;29.92;;;20.92;;
52668;SDS011;76842;52.786;6.892;2024-03-08T11:03:52;27.98;;;20.58;;
52668;SDS011;76842;52.786;6.892;2024-03-08T11:07:13;26.77;;;19.02;;
52668;SDS011;76842;52.786;6.892;2024-03-08T11:10:48;30.35;;;21.75;;
52668;SDS011;76842;52.786;6.892;2024-03-08T11:18:06;27.00;;;20.40;;
52668;SDS011;76842;52.786;6.892;2024-03-08T11:21:30;26.92;;;21.15;;
52668;SDS011;76842;52.786;6.892;2024-03-08T11:24:53;29.45;;;22.02;;
52668;SDS011;76842;52.786;6.892;2024-03-08T11:28:25;31.65;;;21.20;;
52668;SDS011;76842;52.786;6.892;2024-03-08T11:31:47;26.92;;;21.08;;
52668;SDS011;76842;52.786;6.892;2024-03-08T11:35:10;25.42;;;20.45;;
52668;SDS011;76842;52.786;6.892;2024-03-08T11:38:43;28.08;;;21.33;;
52668;SDS011;76842;52.786;6.892;2024-03-08T11:42:04;28.15;;;21.33;;
52668;SDS011;76842;52.786;6.892;2024-03-08T11:45:25;29.73;;;21.45;;
52668;SDS011;76842;52.786;6.892;2024-03-08T11:48:46;28.83;;;21.40;;
52668;SDS011;76842;52.786;6.892;2024-03-08T11:52:10;28.58;;;21.55;;
52668;SDS011;76842;52.786;6.892;2024-03-08T11:55:33;26.60;;;21.00;;
52668;SDS011;76842;52.786;6.892;2024-03-08T11:58:56;30.13;;;22.67;;
52668;SDS011;76842;52.786;6.892;2024-03-08T12:02:20;26.52;;;21.00;;
52668;SDS011;76842;52.786;6.892;2024-03-08T12:05:41;25.58;;;21.17;;
52668;SDS011;76842;52.786;6.892;2024-03-08T12:09:03;27.23;;;20.25;;
52668;SDS011;76842;52.786;6.892;2024-03-08T12:12:24;24.08;;;19.00;;
52668;SDS011;76842;52.786;6.892;2024-03-08T12:15:45;29.63;;;22.27;;
52668;SDS011;76842;52.786;6.892;2024-03-08T12:19:05;28.08;;;21.00;;
52668;SDS011;76842;52.786;6.892;2024-03-08T12:22:26;27.30;;;20.63;;
52668;SDS011;76842;52.786;6.892;2024-03-08T12:25:47;25.55;;;19.13;;
52668;SDS011;76842;52.786;6.892;2024-03-08T12:29:17;25.08;;;18.40;;
52668;SDS011;76842;52.786;6.892;2024-03-08T12:32:58;30.08;;;21.95;;
52668;SDS011;76842;52.786;6.892;2024-03-08T12:36:20;23.35;;;19.50;;
52668;SDS011;76842;52.786;6.892;2024-03-08T12:39:41;28.30;;;20.25;;
52668;SDS011;76842;52.786;6.892;2024-03-08T12:43:01;23.95;;;18.48;;
52668;SDS011;76842;52.786;6.892;2024-03-08T12:46:23;23.95;;;18.77;;
52668;SDS011;76842;52.786;6.892;2024-03-08T12:49:46;23.65;;;17.05;;
52668;SDS011;76842;52.786;6.892;2024-03-08T12:53:07;26.38;;;18.63;;
52668;SDS011;76842;52.786;6.892;2024-03-08T12:56:29;22.73;;;18.25;;
52668;SDS011;76842;52.786;6.892;2024-03-08T12:59:52;25.10;;;20.20;;
52668;SDS011;76842;52.786;6.892;2024-03-08T13:03:14;24.83;;;18.75;;
52668;SDS011;76842;52.786;6.892;2024-03-08T13:06:34;22.85;;;17.95;;
52668;SDS011;76842;52.786;6.892;2024-03-08T13:09:55;22.77;;;18.55;;
52668;SDS011;76842;52.786;6.892;2024-03-08T13:13:17;23.92;;;18.02;;
52668;SDS011;76842;52.786;6.892;2024-03-08T13:16:37;23.98;;;17.70;;
52668;SDS011;76842;52.786;6.892;2024-03-08T13:19:58;21.23;;;17.42;;
52668;SDS011;76842;52.786;6.892;2024-03-08T13:23:19;23.55;;;19.15;;
52668;SDS011;76842;52.786;6.892;2024-03-08T13:26:39;24.63;;;18.55;;
52668;SDS011;76842;52.786;6.892;2024-03-08T13:30:03;23.50;;;18.83;;
52668;SDS011;76842;52.786;6.892;2024-03-08T13:33:24;21.95;;;17.65;;
52668;SDS011;76842;52.786;6.892;2024-03-08T13:36:45;23.02;;;17.35;;
52668;SDS011;76842;52.786;6.892;2024-03-08T13:40:07;25.20;;;17.92;;
52668;SDS011;76842;52.786;6.892;2024-03-08T13:43:30;23.50;;;15.93;;
52668;SDS011;76842;52.786;6.892;2024-03-08T13:46:54;23.10;;;16.42;;
52668;SDS011;76842;52.786;6.892;2024-03-08T13:50:18;19.75;;;16.88;;
52668;SDS011;76842;52.786;6.892;2024-03-08T13:53:41;19.38;;;15.77;;
52668;SDS011;76842;52.786;6.892;2024-03-08T13:57:02;23.25;;;16.35;;
52668;SDS011;76842;52.786;6.892;2024-03-08T14:00:25;20.88;;;15.82;;
52668;SDS011;76842;52.786;6.892;2024-03-08T14:03:52;21.67;;;16.48;;
52668;SDS011;76842;52.786;6.892;2024-03-08T14:07:13;20.20;;;16.10;;
52668;SDS011;76842;52.786;6.892;2024-03-08T14:10:34;19.35;;;15.40;;
52668;SDS011;76842;52.786;6.892;2024-03-08T14:13:57;25.27;;;17.92;;
52668;SDS011;76842;52.786;6.892;2024-03-08T14:17:17;22.20;;;16.88;;
52668;SDS011;76842;52.786;6.892;2024-03-08T14:20:38;22.17;;;17.30;;
52668;SDS011;76842;52.786;6.892;2024-03-08T14:23:59;22.83;;;17.95;;
52668;SDS011;76842;52.786;6.892;2024-03-08T14:27:20;20.42;;;16.27;;
52668;SDS011;76842;52.786;6.892;2024-03-08T14:30:42;24.08;;;18.00;;
52668;SDS011;76842;52.786;6.892;2024-03-08T14:34:03;23.95;;;18.27;;
52668;SDS011;76842;52.786;6.892;2024-03-08T14:37:24;21.70;;;17.25;;
52668;SDS011;76842;52.786;6.892;2024-03-08T14:40:49;28.63;;;19.27;;
52668;SDS011;76842;52.786;6.892;2024-03-08T14:44:10;23.25;;;17.60;;
52668;SDS011;76842;52.786;6.892;2024-03-08T14:47:31;24.90;;;18.75;;
52668;SDS011;76842;52.786;6.892;2024-03-08T14:50:54;21.65;;;18.85;;
52668;SDS011;76842;52.786;6.892;2024-03-08T14:54:14;22.73;;;17.92;;
52668;SDS011;76842;52.786;6.892;2024-03-08T14:57:35;23.42;;;17.83;;
52668;SDS011;76842;52.786;6.892;2024-03-08T15:00:55;25.50;;;19.33;;
52668;SDS011;76842;52.786;6.892;2024-03-08T15:04:20;22.80;;;18.42;;
52668;SDS011;76842;52.786;6.892;2024-03-08T15:07:41;23.85;;;18.05;;
52668;SDS011;76842;52.786;6.892;2024-03-08T15:11:02;25.23;;;18.08;;
52668;SDS011;76842;52.786;6.892;2024-03-08T15:14:24;22.15;;;17.30;;
52668;SDS011;76842;52.786;6.892;2024-03-08T15:17:45;20.15;;;16.60;;
52668;SDS011;76842;52.786;6.892;2024-03-08T15:21:07;22.35;;;16.95;;
52668;SDS011;76842;52.786;6.892;2024-03-08T15:24:27;22.33;;;17.75;;
52668;SDS011;76842;52.786;6.892;2024-03-08T15:27:48;25.95;;;19.95;;
52668;SDS011;76842;52.786;6.892;2024-03-08T15:31:09;27.27;;;19.35;;
52668;SDS011;76842;52.786;6.892;2024-03-08T15:34:30;29.27;;;18.33;;
52668;SDS011;76842;52.786;6.892;2024-03-08T15:37:52;20.77;;;17.65;;
52668;SDS011;76842;52.786;6.892;2024-03-08T15:41:14;21.45;;;17.38;;
52668;SDS011;76842;52.786;6.892;2024-03-08T15:44:39;22.58;;;16.35;;
52668;SDS011;76842;52.786;6.892;2024-03-08T15:48:01;21.23;;;17.25;;
52668;SDS011;76842;52.786;6.892;2024-03-08T15:51:25;24.00;;;17.52;;
52668;SDS011;76842;52.786;6.892;2024-03-08T15:54:46;24.60;;;17.90;;
52668;SDS011;76842;52.786;6.892;2024-03-08T15:58:07;23.42;;;17.77;;
52668;SDS011;76842;52.786;6.892;2024-03-08T16:01:27;23.52;;;18.23;;
52668;SDS011;76842;52.786;6.892;2024-03-08T16:04:48;20.83;;;16.65;;
52668;SDS011;76842;52.786;6.892;2024-03-08T16:08:08;24.98;;;18.02;;
52668;SDS011;76842;52.786;6.892;2024-03-08T16:11:35;24.65;;;18.75;;
52668;SDS011;76842;52.786;6.892;2024-03-08T16:14:58;25.53;;;17.20;;
52668;SDS011;76842;52.786;6.892;2024-03-08T16:18:18;24.55;;;19.38;;
52668;SDS011;76842;52.786;6.892;2024-03-08T16:21:44;23.05;;;18.95;;
52668;SDS011;76842;52.786;6.892;2024-03-08T16:25:05;22.70;;;17.85;;
52668;SDS011;76842;52.786;6.892;2024-03-08T16:28:32;21.90;;;17.63;;
52668;SDS011;76842;52.786;6.892;2024-03-08T16:31:58;23.75;;;16.73;;
52668;SDS011;76842;52.786;6.892;2024-03-08T16:35:19;24.50;;;18.83;;
52668;SDS011;76842;52.786;6.892;2024-03-08T16:38:39;26.63;;;20.02;;
52668;SDS011;76842;52.786;6.892;2024-03-08T16:42:03;22.10;;;18.10;;
52668;SDS011;76842;52.786;6.892;2024-03-08T16:45:27;25.58;;;19.20;;
52668;SDS011;76842;52.786;6.892;2024-03-08T16:48:49;25.00;;;18.63;;
52668;SDS011;76842;52.786;6.892;2024-03-08T16:52:09;22.95;;;18.58;;
52668;SDS011;76842;52.786;6.892;2024-03-08T16:55:30;26.52;;;19.77;;
52668;SDS011;76842;52.786;6.892;2024-03-08T16:58:50;27.17;;;20.52;;
52668;SDS011;76842;52.786;6.892;2024-03-08T17:02:11;28.25;;;19.52;;
52668;SDS011;76842;52.786;6.892;2024-03-08T17:05:32;30.15;;;20.50;;
52668;SDS011;76842;52.786;6.892;2024-03-08T17:08:52;26.95;;;19.25;;
52668;SDS011;76842;52.786;6.892;2024-03-08T17:12:13;29.35;;;20.52;;
52668;SDS011;76842;52.786;6.892;2024-03-08T17:15:38;30.73;;;21.67;;
52668;SDS011;76842;52.786;6.892;2024-03-08T17:19:01;26.48;;;21.20;;
52668;SDS011;76842;52.786;6.892;2024-03-08T17:22:22;25.73;;;19.83;;
52668;SDS011;76842;52.786;6.892;2024-03-08T17:25:44;27.63;;;20.70;;
52668;SDS011;76842;52.786;6.892;2024-03-08T17:29:06;34.40;;;23.92;;
52668;SDS011;76842;52.786;6.892;2024-03-08T17:32:27;29.52;;;19.90;;
52668;SDS011;76842;52.786;6.892;2024-03-08T17:35:48;27.75;;;20.90;;
52668;SDS011;76842;52.786;6.892;2024-03-08T17:39:11;31.77;;;21.25;;
52668;SDS011;76842;52.786;6.892;2024-03-08T17:42:38;30.98;;;22.27;;
52668;SDS011;76842;52.786;6.892;2024-03-08T17:45:58;30.85;;;21.85;;
52668;SDS011;76842;52.786;6.892;2024-03-08T17:49:19;29.63;;;21.48;;
52668;SDS011;76842;52.786;6.892;2024-03-08T17:52:40;27.13;;;21.15;;
52668;SDS011;76842;52.786;6.892;2024-03-08T17:56:02;30.67;;;21.87;;
52668;SDS011;76842;52.786;6.892;2024-03-08T17:59:25;31.02;;;23.25;;
52668;SDS011;76842;52.786;6.892;2024-03-08T18:02:48;30.88;;;21.98;;
52668;SDS011;76842;52.786;6.892;2024-03-08T18:06:11;28.90;;;22.10;;
52668;SDS011;76842;52.786;6.892;2024-03-08T18:09:32;30.15;;;20.67;;
52668;SDS011;76842;52.786;6.892;2024-03-08T18:12:54;31.00;;;21.95;;
52668;SDS011;76842;52.786;6.892;2024-03-08T18:16:18;26.48;;;19.92;;
52668;SDS011;76842;52.786;6.892;2024-03-08T18:19:39;30.33;;;21.05;;
52668;SDS011;76842;52.786;6.892;2024-03-08T18:23:00;27.73;;;21.95;;
52668;SDS011;76842;52.786;6.892;2024-03-08T18:26:22;30.20;;;21.08;;
52668;SDS011;76842;52.786;6.892;2024-03-08T18:29:43;31.98;;;20.60;;
52668;SDS011;76842;52.786;6.892;2024-03-08T18:33:03;30.15;;;22.63;;
52668;SDS011;76842;52.786;6.892;2024-03-08T18:36:25;28.50;;;20.67;;
52668;SDS011;76842;52.786;6.892;2024-03-08T18:39:50;29.63;;;22.05;;
52668;SDS011;76842;52.786;6.892;2024-03-08T18:43:12;28.63;;;22.52;;
52668;SDS011;76842;52.786;6.892;2024-03-08T18:46:32;32.33;;;22.38;;
52668;SDS011;76842;52.786;6.892;2024-03-08T18:49:53;32.60;;;22.30;;
52668;SDS011;76842;52.786;6.892;2024-03-08T18:53:13;28.35;;;20.92;;
52668;SDS011;76842;52.786;6.892;2024-03-08T18:56:34;29.00;;;22.20;;
52668;SDS011;76842;52.786;6.892;2024-03-08T18:59:55;27.45;;;20.73;;
52668;SDS011;76842;52.786;6.892;2024-03-08T19:03:16;35.03;;;22.25;;
52668;SDS011;76842;52.786;6.892;2024-03-08T19:06:36;29.52;;;21.67;;
52668;SDS011;76842;52.786;6.892;2024-03-08T19:09:57;25.05;;;20.00;;
52668;SDS011;76842;52.786;6.892;2024-03-08T19:13:18;26.60;;;20.70;;
52668;SDS011;76842;52.786;6.892;2024-03-08T19:16:38;25.23;;;19.45;;
52668;SDS011;76842;52.786;6.892;2024-03-08T19:20:03;29.75;;;20.58;;
52668;SDS011;76842;52.786;6.892;2024-03-08T19:23:33;26.50;;;19.20;;
52668;SDS011;76842;52.786;6.892;2024-03-08T19:26:55;26.50;;;20.63;;
52668;SDS011;76842;52.786;6.892;2024-03-08T19:30:16;24.05;;;19.48;;
52668;SDS011;76842;52.786;6.892;2024-03-08T19:33:37;28.05;;;20.75;;
52668;SDS011;76842;52.786;6.892;2024-03-08T19:36:59;25.30;;;19.98;;
52668;SDS011;76842;52.786;6.892;2024-03-08T19:40:20;26.80;;;18.80;;
52668;SDS011;76842;52.786;6.892;2024-03-08T19:43:44;27.60;;;19.70;;
52668;SDS011;76842;52.786;6.892;2024-03-08T19:47:05;30.40;;;21.38;;
52668;SDS011;76842;52.786;6.892;2024-03-08T19:50:28;31.17;;;21.73;;